createdAt,value
2023-01-27T00:00:15.700Z,88.17
2023-01-27T00:01:15.453Z,88.37
2023-01-27T00:02:15.412Z,88.48
2023-01-27T00:03:15.450Z,88.44
2023-01-27T00:04:15.385Z,88.27
2023-01-27T00:05:15.364Z,88.12
2023-01-27T00:06:15.360Z,88.02
2023-01-27T00:07:15.371Z,87.81
2023-01-27T00:08:15.367Z,87.74
2023-01-27T00:09:15.316Z,87.85
2023-01-27T00:10:15.444Z,88.02
2023-01-27T00:11:15.278Z,88.02
2023-01-27T00:12:15.304Z,87.96
2023-01-27T00:13:15.309Z,88.12
2023-01-27T00:14:15.277Z,88.27
2023-01-27T00:15:15.243Z,88.27
2023-01-27T00:16:15.302Z,88.37
2023-01-27T00:17:15.228Z,88.37
2023-01-27T00:18:15.274Z,88.17
2023-01-27T00:19:15.198Z,88.06
2023-01-27T00:20:15.184Z,88.17
2023-01-27T00:21:15.166Z,88.27
2023-01-27T00:22:15.179Z,88.17
2023-01-27T00:23:15.178Z,88.06
2023-01-27T00:24:15.224Z,87.96
2023-01-27T00:25:15.177Z,87.96
2023-01-27T00:26:15.123Z,87.96
2023-01-27T00:27:15.121Z,88.17
2023-01-27T00:28:15.104Z,88.27
2023-01-27T00:29:15.111Z,88.27
2023-01-27T00:30:15.097Z,88.17
2023-01-27T00:31:15.174Z,88.27
2023-01-27T00:32:15.052Z,88.37
2023-01-27T00:33:15.027Z,88.48
2023-01-27T00:34:15.056Z,88.69
2023-01-27T00:35:15.046Z,88.90
2023-01-27T00:36:15.032Z,88.90
2023-01-27T00:37:15.031Z,88.90
2023-01-27T00:38:14.978Z,88.90
2023-01-27T00:39:14.993Z,88.90
2023-01-27T00:40:15.255Z,88.90
2023-01-27T00:41:14.961Z,88.90
2023-01-27T00:42:14.991Z,89.00
2023-01-27T00:43:14.971Z,89.00
2023-01-27T00:44:15.169Z,89.11
2023-01-27T00:45:14.943Z,89.22
2023-01-27T00:46:14.893Z,89.22
2023-01-27T00:47:14.892Z,89.22
2023-01-27T00:48:14.893Z,89.42
2023-01-27T00:49:14.845Z,89.42
2023-01-27T00:50:14.976Z,89.53
2023-01-27T00:51:14.843Z,89.63
2023-01-27T00:52:14.847Z,89.63
2023-01-27T00:53:14.823Z,89.73
2023-01-27T00:54:14.812Z,89.84
2023-01-27T00:55:14.849Z,89.95
2023-01-27T00:56:14.808Z,90.05
2023-01-27T00:57:14.781Z,90.05
2023-01-27T00:58:14.764Z,90.05
2023-01-27T00:59:14.765Z,90.16
2023-01-27T01:00:15.020Z,90.16
2023-01-27T01:01:14.729Z,90.05
2023-01-27T01:02:14.749Z,90.16
2023-01-27T01:03:14.704Z,90.16
2023-01-27T01:04:14.695Z,90.16
2023-01-27T01:05:14.700Z,90.16
2023-01-27T01:06:14.753Z,90.16
2023-01-27T01:07:14.664Z,90.16
2023-01-27T01:08:14.653Z,90.26
2023-01-27T01:09:14.650Z,90.36
2023-01-27T01:10:14.980Z,90.47
2023-01-27T01:11:14.646Z,90.47
2023-01-27T01:12:14.592Z,90.58
2023-01-27T01:13:14.595Z,90.58
2023-01-27T01:14:14.599Z,90.58
2023-01-27T01:15:14.610Z,90.58
2023-01-27T01:16:14.743Z,90.58
2023-01-27T01:17:14.549Z,90.47
2023-01-27T01:18:14.523Z,90.51
2023-01-27T01:19:14.513Z,90.51
2023-01-27T01:20:14.811Z,90.72
2023-01-27T01:21:14.565Z,90.93
2023-01-27T01:22:14.510Z,91.03
2023-01-27T01:23:14.463Z,91.24
2023-01-27T01:24:14.573Z,91.24
2023-01-27T01:25:14.457Z,91.24
2023-01-27T01:26:14.442Z,91.14
2023-01-27T01:27:14.434Z,91.14
2023-01-27T01:28:14.447Z,91.24
2023-01-27T01:29:14.398Z,91.09
2023-01-27T01:30:14.700Z,91.03
2023-01-27T01:31:14.483Z,91.09
2023-01-27T01:32:14.449Z,91.09
2023-01-27T01:33:14.372Z,91.09
2023-01-27T01:34:14.335Z,91.09
2023-01-27T01:35:14.362Z,90.99
2023-01-27T01:36:14.339Z,90.89
2023-01-27T01:37:14.312Z,90.89
2023-01-27T01:38:14.336Z,90.89
2023-01-27T01:39:14.288Z,90.99
2023-01-27T01:40:14.607Z,90.99
2023-01-27T01:41:14.291Z,90.99
2023-01-27T01:42:14.276Z,90.89
2023-01-27T01:43:14.269Z,90.78
2023-01-27T01:44:14.268Z,90.68
2023-01-27T01:45:14.271Z,90.68
2023-01-27T01:46:14.270Z,90.78
2023-01-27T01:47:14.209Z,90.89
2023-01-27T01:48:14.200Z,90.89
2023-01-27T01:49:14.222Z,90.99
2023-01-27T01:50:14.492Z,90.99
2023-01-27T01:51:14.169Z,90.99
2023-01-27T01:52:14.203Z,91.09
2023-01-27T01:53:14.155Z,91.20
2023-01-27T01:54:14.137Z,91.09
2023-01-27T01:55:14.407Z,91.09
2023-01-27T01:56:14.108Z,90.99
2023-01-27T01:57:14.140Z,90.99
2023-01-27T01:58:14.136Z,91.09
2023-01-27T01:59:14.133Z,91.31
2023-01-27T02:00:14.441Z,91.09
2023-01-27T02:01:14.122Z,90.99
2023-01-27T02:02:14.094Z,91.09
2023-01-27T02:03:14.118Z,91.31
2023-01-27T02:04:14.030Z,91.31
2023-01-27T02:05:14.508Z,91.31
2023-01-27T02:06:14.007Z,91.20
2023-01-27T02:07:13.991Z,91.09
2023-01-27T02:08:13.973Z,90.99
2023-01-27T02:09:13.964Z,90.89
2023-01-27T02:10:14.207Z,90.89
2023-01-27T02:11:13.947Z,90.99
2023-01-27T02:12:13.901Z,91.09
2023-01-27T02:13:13.926Z,91.20
2023-01-27T02:14:13.916Z,91.20
2023-01-27T02:15:14.275Z,91.20
2023-01-27T02:16:14.143Z,91.31
2023-01-27T02:17:13.859Z,91.41
2023-01-27T02:18:13.845Z,91.41
2023-01-27T02:19:13.850Z,91.31
2023-01-27T02:20:13.843Z,91.41
2023-01-27T02:21:13.836Z,91.41
2023-01-27T02:22:13.834Z,91.37
2023-01-27T02:23:13.803Z,91.37
2023-01-27T02:24:13.846Z,91.16
2023-01-27T02:25:14.081Z,91.06
2023-01-27T02:26:13.770Z,90.95
2023-01-27T02:27:13.773Z,90.84
2023-01-27T02:28:13.747Z,90.84
2023-01-27T02:29:13.730Z,90.95
2023-01-27T02:30:13.744Z,90.95
2023-01-27T02:31:13.763Z,91.06
2023-01-27T02:32:13.675Z,91.06
2023-01-27T02:33:13.755Z,91.16
2023-01-27T02:34:13.678Z,91.31
2023-01-27T02:35:13.972Z,91.41
2023-01-27T02:36:13.632Z,91.41
2023-01-27T02:37:13.620Z,91.41
2023-01-27T02:38:13.635Z,91.72
2023-01-27T02:39:13.683Z,91.83
2023-01-27T02:40:13.587Z,91.83
2023-01-27T02:41:13.586Z,91.72
2023-01-27T02:42:13.578Z,91.62
2023-01-27T02:43:13.559Z,91.62
2023-01-27T02:44:13.565Z,91.72
2023-01-27T02:45:13.951Z,91.83
2023-01-27T02:46:13.554Z,91.83
2023-01-27T02:47:13.509Z,91.83
2023-01-27T02:48:13.497Z,91.83
2023-01-27T02:49:13.518Z,91.72
2023-01-27T02:50:13.491Z,91.72
2023-01-27T02:51:13.501Z,91.62
2023-01-27T02:52:13.486Z,91.62
2023-01-27T02:53:13.437Z,91.52
2023-01-27T02:54:13.438Z,91.52
2023-01-27T02:55:13.762Z,91.52
2023-01-27T02:56:13.436Z,91.41
2023-01-27T02:57:13.434Z,91.37
2023-01-27T02:58:13.411Z,91.47
2023-01-27T02:59:13.386Z,91.47
2023-01-27T03:00:13.386Z,91.47
2023-01-27T03:01:13.369Z,91.37
2023-01-27T03:02:13.402Z,91.37
2023-01-27T03:03:13.392Z,91.16
2023-01-27T03:04:13.369Z,91.16
2023-01-27T03:05:13.632Z,91.16
2023-01-27T03:06:13.299Z,91.27
2023-01-27T03:07:13.317Z,91.16
2023-01-27T03:08:13.269Z,91.16
2023-01-27T03:09:13.258Z,91.27
2023-01-27T03:10:13.283Z,91.37
2023-01-27T03:11:13.243Z,91.37
2023-01-27T03:12:13.246Z,91.27
2023-01-27T03:13:13.243Z,91.27
2023-01-27T03:14:13.222Z,91.16
2023-01-27T03:15:13.369Z,91.16
2023-01-27T03:16:14.577Z,91.37
2023-01-27T03:17:13.210Z,91.37
2023-01-27T03:18:13.176Z,91.52
2023-01-27T03:19:13.171Z,91.62
2023-01-27T03:20:13.136Z,91.79
2023-01-27T03:21:13.143Z,91.79
2023-01-27T03:22:13.158Z,91.89
2023-01-27T03:23:13.143Z,91.79
2023-01-27T03:24:13.177Z,91.79
2023-01-27T03:25:13.356Z,91.79
2023-01-27T03:26:13.091Z,91.79
2023-01-27T03:27:13.094Z,91.69
2023-01-27T03:28:13.064Z,91.58
2023-01-27T03:29:13.067Z,91.58
2023-01-27T03:30:13.082Z,91.58
2023-01-27T03:31:13.110Z,91.58
2023-01-27T03:32:13.032Z,91.58
2023-01-27T03:33:13.014Z,91.47
2023-01-27T03:34:13.025Z,91.47
2023-01-27T03:35:13.362Z,91.58
2023-01-27T03:36:12.993Z,91.69
2023-01-27T03:37:12.953Z,91.58
2023-01-27T03:38:12.967Z,91.37
2023-01-27T03:39:12.916Z,91.27
2023-01-27T03:40:12.943Z,91.27
2023-01-27T03:41:12.912Z,91.37
2023-01-27T03:42:12.923Z,91.37
2023-01-27T03:43:12.888Z,91.27
2023-01-27T03:44:12.905Z,91.27
2023-01-27T03:45:13.325Z,91.27
2023-01-27T03:46:12.911Z,91.16
2023-01-27T03:47:12.828Z,91.27
2023-01-27T03:48:12.872Z,91.37
2023-01-27T03:49:12.879Z,91.37
2023-01-27T03:50:12.799Z,91.27
2023-01-27T03:51:12.799Z,91.27
2023-01-27T03:52:12.839Z,91.47
2023-01-27T03:53:13.061Z,91.58
2023-01-27T03:54:12.768Z,91.69
2023-01-27T03:55:12.991Z,91.79
2023-01-27T03:56:12.753Z,91.89
2023-01-27T03:57:12.737Z,92.10
2023-01-27T03:58:12.695Z,92.21
2023-01-27T03:59:12.725Z,92.10
2023-01-27T04:00:12.669Z,92.10
2023-01-27T04:01:12.700Z,92.00
2023-01-27T04:02:12.670Z,92.00
2023-01-27T04:03:12.661Z,92.10
2023-01-27T04:04:12.632Z,92.10
2023-01-27T04:05:12.872Z,92.21
2023-01-27T04:06:12.628Z,92.21
2023-01-27T04:07:12.617Z,92.10
2023-01-27T04:08:12.631Z,92.10
2023-01-27T04:09:12.580Z,92.21
2023-01-27T04:10:12.580Z,92.21
2023-01-27T04:11:12.593Z,92.10
2023-01-27T04:12:12.543Z,92.10
2023-01-27T04:13:12.575Z,92.10
2023-01-27T04:14:12.557Z,92.10
2023-01-27T04:15:12.927Z,92.00
2023-01-27T04:16:12.549Z,91.89
2023-01-27T04:17:12.506Z,91.89
2023-01-27T04:18:12.478Z,91.89
2023-01-27T04:19:12.498Z,91.89
2023-01-27T04:20:12.506Z,91.89
2023-01-27T04:21:12.443Z,92.00
2023-01-27T04:22:12.462Z,92.00
2023-01-27T04:23:12.456Z,92.00
2023-01-27T04:24:12.426Z,92.00
2023-01-27T04:25:13.462Z,92.00
2023-01-27T04:26:12.434Z,92.00
2023-01-27T04:27:12.385Z,92.10
2023-01-27T04:28:12.364Z,92.21
2023-01-27T04:29:12.347Z,92.16
2023-01-27T04:30:12.357Z,92.16
2023-01-27T04:31:12.425Z,92.16
2023-01-27T04:32:12.313Z,92.16
2023-01-27T04:33:12.312Z,91.96
2023-01-27T04:34:12.312Z,91.89
2023-01-27T04:35:12.496Z,91.89
2023-01-27T04:36:12.296Z,92.00
2023-01-27T04:37:12.288Z,92.00
2023-01-27T04:38:12.949Z,92.00
2023-01-27T04:39:12.240Z,92.10
2023-01-27T04:40:12.267Z,92.10
2023-01-27T04:41:12.236Z,92.16
2023-01-27T04:42:12.231Z,92.16
2023-01-27T04:43:12.187Z,92.06
2023-01-27T04:44:12.183Z,92.00
2023-01-27T04:45:12.452Z,91.96
2023-01-27T04:46:12.165Z,92.00
2023-01-27T04:47:12.166Z,91.89
2023-01-27T04:48:12.145Z,92.00
2023-01-27T04:49:12.147Z,92.00
2023-01-27T04:50:12.138Z,92.10
2023-01-27T04:51:12.100Z,92.21
2023-01-27T04:52:12.157Z,92.21
2023-01-27T04:53:12.069Z,92.16
2023-01-27T04:54:12.068Z,92.27
2023-01-27T04:55:12.267Z,92.06
2023-01-27T04:56:12.028Z,92.16
2023-01-27T04:57:12.047Z,92.16
2023-01-27T04:58:12.079Z,92.27
2023-01-27T04:59:12.020Z,92.27
2023-01-27T05:00:11.991Z,92.27
2023-01-27T05:01:12.000Z,92.38
2023-01-27T05:02:12.026Z,92.38
2023-01-27T05:03:12.060Z,92.48
2023-01-27T05:04:11.955Z,92.48
2023-01-27T05:05:12.318Z,92.69
2023-01-27T05:06:11.937Z,92.69
2023-01-27T05:07:11.977Z,92.79
2023-01-27T05:08:11.912Z,92.79
2023-01-27T05:09:11.877Z,92.79
2023-01-27T05:10:11.905Z,92.79
2023-01-27T05:11:11.893Z,92.79
2023-01-27T05:12:11.838Z,92.79
2023-01-27T05:13:11.892Z,92.94
2023-01-27T05:14:11.842Z,93.04
2023-01-27T05:15:12.182Z,93.11
2023-01-27T05:16:11.813Z,93.21
2023-01-27T05:17:11.800Z,93.32
2023-01-27T05:18:11.792Z,93.21
2023-01-27T05:19:12.082Z,93.21
2023-01-27T05:20:11.778Z,93.21
2023-01-27T05:21:11.792Z,93.21
2023-01-27T05:22:11.749Z,93.21
2023-01-27T05:23:11.745Z,93.32
2023-01-27T05:24:11.800Z,93.32
2023-01-27T05:25:12.063Z,93.42
2023-01-27T05:26:11.725Z,93.32
2023-01-27T05:27:11.672Z,93.11
2023-01-27T05:28:11.677Z,93.11
2023-01-27T05:29:11.723Z,93.01
2023-01-27T05:30:11.697Z,93.01
2023-01-27T05:31:11.715Z,93.15
2023-01-27T05:32:11.637Z,93.26
2023-01-27T05:33:11.611Z,93.46
2023-01-27T05:34:11.613Z,93.52
2023-01-27T05:35:11.933Z,93.52
2023-01-27T05:36:11.597Z,93.52
2023-01-27T05:37:11.579Z,93.52
2023-01-27T05:38:11.565Z,93.52
2023-01-27T05:39:11.588Z,93.63
2023-01-27T05:40:11.585Z,93.63
2023-01-27T05:41:11.529Z,93.42
2023-01-27T05:42:11.571Z,93.42
2023-01-27T05:43:11.511Z,93.42
2023-01-27T05:44:11.531Z,93.52
2023-01-27T05:45:11.504Z,93.63
2023-01-27T05:46:11.527Z,93.74
2023-01-27T05:47:11.447Z,93.74
2023-01-27T05:48:11.457Z,93.74
2023-01-27T05:49:11.467Z,93.63
2023-01-27T05:50:11.416Z,93.63
2023-01-27T05:51:14.546Z,93.52
2023-01-27T05:52:11.448Z,93.52
2023-01-27T05:53:11.400Z,93.63
2023-01-27T05:54:11.383Z,93.63
2023-01-27T05:55:11.870Z,93.52
2023-01-27T05:56:11.371Z,93.52
2023-01-27T05:57:11.373Z,93.42
2023-01-27T05:58:11.325Z,93.32
2023-01-27T05:59:11.366Z,93.32
2023-01-27T06:00:11.337Z,93.32
2023-01-27T06:01:11.301Z,93.32
2023-01-27T06:02:11.439Z,93.42
2023-01-27T06:03:11.325Z,93.42
2023-01-27T06:04:11.280Z,93.42
2023-01-27T06:05:11.779Z,93.52
2023-01-27T06:06:11.242Z,93.52
2023-01-27T06:07:11.257Z,93.52
2023-01-27T06:08:11.226Z,93.63
2023-01-27T06:09:11.240Z,93.52
2023-01-27T06:10:11.187Z,93.63
2023-01-27T06:11:11.191Z,93.63
2023-01-27T06:12:11.411Z,93.63
2023-01-27T06:13:11.171Z,93.74
2023-01-27T06:14:11.198Z,93.74
2023-01-27T06:15:11.639Z,93.74
2023-01-27T06:16:11.198Z,93.63
2023-01-27T06:17:11.148Z,93.63
2023-01-27T06:18:11.173Z,93.63
2023-01-27T06:19:11.102Z,93.63
2023-01-27T06:20:11.100Z,93.63
2023-01-27T06:21:11.125Z,93.74
2023-01-27T06:22:11.081Z,93.74
2023-01-27T06:23:11.040Z,93.74
2023-01-27T06:24:12.668Z,93.74
2023-01-27T06:25:11.029Z,93.74
2023-01-27T06:26:11.045Z,93.74
2023-01-27T06:27:11.068Z,93.84
2023-01-27T06:28:19.877Z,93.84
2023-01-27T06:29:11.987Z,93.84
2023-01-27T06:30:10.996Z,93.84
2023-01-27T06:31:10.986Z,93.84
2023-01-27T06:32:11.020Z,93.84
2023-01-27T06:33:13.197Z,93.84
2023-01-27T06:34:10.937Z,93.74
2023-01-27T06:35:11.210Z,93.74
2023-01-27T06:36:10.917Z,93.74
2023-01-27T06:37:10.881Z,93.63
2023-01-27T06:38:12.502Z,93.52
2023-01-27T06:39:10.893Z,93.52
2023-01-27T06:40:11.043Z,93.52
2023-01-27T06:41:10.842Z,93.42
2023-01-27T06:42:10.865Z,93.42
2023-01-27T06:43:10.839Z,93.32
2023-01-27T06:44:10.837Z,93.21
2023-01-27T06:45:10.808Z,93.11
2023-01-27T06:46:10.863Z,93.11
2023-01-27T06:47:10.753Z,93.11
2023-01-27T06:48:10.757Z,93.21
2023-01-27T06:49:10.827Z,93.21
2023-01-27T06:50:10.735Z,93.11
2023-01-27T06:51:10.739Z,93.11
2023-01-27T06:52:10.737Z,93.11
2023-01-27T06:53:10.734Z,93.21
2023-01-27T06:54:10.755Z,93.32
2023-01-27T06:55:11.757Z,93.42
2023-01-27T06:56:10.708Z,93.52
2023-01-27T06:57:10.725Z,93.42
2023-01-27T06:58:10.675Z,93.42
2023-01-27T06:59:10.637Z,93.42
2023-01-27T07:00:10.720Z,93.42
2023-01-27T07:01:10.754Z,93.42
2023-01-27T07:02:10.659Z,93.42
2023-01-27T07:03:10.608Z,93.32
2023-01-27T07:04:10.596Z,93.21
2023-01-27T07:05:10.606Z,93.11
2023-01-27T07:06:10.581Z,93.01
2023-01-27T07:07:10.535Z,92.90
2023-01-27T07:08:10.588Z,92.79
2023-01-27T07:09:10.588Z,92.58
2023-01-27T07:10:10.795Z,92.48
2023-01-27T07:11:10.527Z,92.48
2023-01-27T07:12:10.513Z,92.38
2023-01-27T07:13:10.530Z,92.48
2023-01-27T07:14:10.754Z,92.48
2023-01-27T07:15:10.440Z,92.58
2023-01-27T07:16:10.490Z,92.69
2023-01-27T07:17:10.492Z,92.69
2023-01-27T07:18:10.771Z,92.79
2023-01-27T07:19:10.410Z,92.85
2023-01-27T07:20:10.429Z,92.69
2023-01-27T07:21:10.420Z,92.58
2023-01-27T07:22:10.377Z,92.69
2023-01-27T07:23:10.431Z,92.79
2023-01-27T07:24:10.375Z,92.79
2023-01-27T07:25:10.348Z,92.79
2023-01-27T07:26:24.178Z,92.90
2023-01-27T07:27:11.328Z,92.90
2023-01-27T07:28:10.332Z,92.90
2023-01-27T07:29:10.354Z,93.01
2023-01-27T07:30:10.318Z,92.96
2023-01-27T07:31:10.514Z,92.96
2023-01-27T07:32:10.285Z,92.85
2023-01-27T07:33:10.239Z,92.65
2023-01-27T07:34:10.233Z,92.48
2023-01-27T07:35:10.224Z,92.16
2023-01-27T07:36:10.246Z,92.06
2023-01-27T07:37:10.441Z,92.02
2023-01-27T07:38:10.239Z,92.02
2023-01-27T07:39:10.237Z,91.54
2023-01-27T07:40:10.177Z,91.22
2023-01-27T07:41:10.173Z,91.18
2023-01-27T07:42:10.152Z,91.18
2023-01-27T07:43:10.124Z,91.08
2023-01-27T07:44:10.193Z,90.77
2023-01-27T07:45:13.134Z,90.56
2023-01-27T07:46:10.133Z,90.14
2023-01-27T07:47:10.165Z,89.93
2023-01-27T07:48:10.098Z,89.61
2023-01-27T07:49:10.077Z,89.30
2023-01-27T07:50:10.121Z,89.20
2023-01-27T07:51:10.039Z,89.26
2023-01-27T07:52:10.066Z,89.47
2023-01-27T07:53:10.041Z,89.58
2023-01-27T07:54:10.028Z,89.58
2023-01-27T07:55:09.983Z,89.68
2023-01-27T07:56:10.026Z,89.58
2023-01-27T07:57:10.000Z,89.47
2023-01-27T07:58:09.990Z,89.36
2023-01-27T07:59:09.980Z,89.47
2023-01-27T08:00:09.966Z,89.47
2023-01-27T08:01:10.021Z,89.26
2023-01-27T08:02:09.904Z,89.15
2023-01-27T08:03:09.937Z,88.95
2023-01-27T08:04:10.016Z,88.95
2023-01-27T08:05:09.876Z,88.95
2023-01-27T08:06:09.855Z,88.90
2023-01-27T08:07:09.889Z,88.70
2023-01-27T08:08:09.884Z,88.59
2023-01-27T08:09:09.844Z,88.49
2023-01-27T08:10:09.888Z,88.70
2023-01-27T08:11:09.833Z,88.59
2023-01-27T08:12:09.820Z,88.39
2023-01-27T08:13:09.853Z,88.42
2023-01-27T08:14:09.793Z,88.70
2023-01-27T08:15:09.799Z,88.80
2023-01-27T08:16:09.802Z,88.80
2023-01-27T08:17:09.794Z,88.90
2023-01-27T08:18:09.730Z,88.90
2023-01-27T08:19:09.743Z,89.05
2023-01-27T08:20:09.749Z,89.01
2023-01-27T08:21:09.711Z,88.84
2023-01-27T08:22:09.689Z,89.01
2023-01-27T08:23:09.733Z,89.01
2023-01-27T08:24:09.761Z,89.01
2023-01-27T08:25:09.640Z,89.22
2023-01-27T08:26:09.681Z,89.22
2023-01-27T08:27:09.642Z,89.11
2023-01-27T08:28:09.640Z,89.11
2023-01-27T08:29:09.623Z,89.01
2023-01-27T08:30:09.612Z,88.80
2023-01-27T08:31:09.599Z,88.59
2023-01-27T08:32:09.609Z,88.70
2023-01-27T08:33:09.609Z,88.70
2023-01-27T08:34:09.561Z,88.49
2023-01-27T08:35:09.790Z,88.39
2023-01-27T08:36:09.566Z,88.28
2023-01-27T08:37:09.565Z,88.28
2023-01-27T08:38:09.543Z,88.17
2023-01-27T08:39:09.575Z,88.07
2023-01-27T08:40:09.538Z,88.07
2023-01-27T08:41:09.486Z,88.42
2023-01-27T08:42:09.507Z,88.32
2023-01-27T08:43:09.469Z,88.64
2023-01-27T08:44:09.458Z,88.32
2023-01-27T08:45:09.545Z,88.42
2023-01-27T08:46:09.479Z,88.42
2023-01-27T08:47:09.405Z,88.42
2023-01-27T08:48:10.379Z,88.39
2023-01-27T08:49:10.468Z,88.49
2023-01-27T08:50:09.380Z,88.07
2023-01-27T08:51:09.395Z,88.21
2023-01-27T08:52:09.332Z,88.17
2023-01-27T08:53:09.365Z,88.28
2023-01-27T08:54:09.337Z,88.39
2023-01-27T08:55:09.335Z,88.49
2023-01-27T08:56:09.574Z,88.70
2023-01-27T08:57:09.304Z,88.70
2023-01-27T08:58:09.296Z,88.39
2023-01-27T08:59:09.290Z,88.17
2023-01-27T09:00:09.243Z,88.07
2023-01-27T09:01:09.272Z,88.07
2023-01-27T09:02:10.497Z,88.07
2023-01-27T09:03:09.260Z,88.17
2023-01-27T09:04:09.249Z,88.39
2023-01-27T09:05:09.207Z,88.55
2023-01-27T09:06:09.252Z,88.65
2023-01-27T09:07:09.230Z,88.87
2023-01-27T09:08:09.194Z,89.07
2023-01-27T09:09:11.547Z,89.28
2023-01-27T09:10:16.576Z,89.18
2023-01-27T09:11:10.616Z,89.07
2023-01-27T09:12:09.616Z,89.18
2023-01-27T09:13:09.140Z,89.28
2023-01-27T09:14:09.721Z,89.34
2023-01-27T09:15:09.095Z,89.34
2023-01-27T09:16:09.117Z,89.34
2023-01-27T09:17:09.176Z,89.14
2023-01-27T09:18:09.156Z,89.24
2023-01-27T09:19:09.112Z,89.34
2023-01-27T09:20:09.047Z,89.14
2023-01-27T09:21:09.087Z,89.24
2023-01-27T09:22:09.103Z,89.14
2023-01-27T09:23:09.019Z,88.99
2023-01-27T09:24:09.018Z,89.10
2023-01-27T09:25:08.979Z,88.99
2023-01-27T09:26:09.132Z,88.89
2023-01-27T09:27:08.972Z,88.57
2023-01-27T09:28:08.941Z,88.37
2023-01-27T09:29:09.032Z,88.26
2023-01-27T09:30:08.932Z,88.26
2023-01-27T09:31:09.019Z,88.06
2023-01-27T09:32:09.059Z,88.16
2023-01-27T09:33:08.914Z,88.37
2023-01-27T09:34:08.879Z,88.47
2023-01-27T09:35:08.908Z,88.37
2023-01-27T09:36:08.913Z,88.26
2023-01-27T09:37:08.852Z,88.26
2023-01-27T09:38:08.972Z,88.47
2023-01-27T09:39:08.849Z,88.78
2023-01-27T09:40:08.863Z,88.89
2023-01-27T09:41:08.839Z,88.75
2023-01-27T09:42:09.135Z,88.53
2023-01-27T09:43:08.773Z,88.12
2023-01-27T09:44:08.832Z,88.16
2023-01-27T09:45:08.773Z,88.16
2023-01-27T09:46:08.875Z,88.12
2023-01-27T09:47:08.747Z,88.22
2023-01-27T09:48:08.707Z,88.37
2023-01-27T09:49:08.691Z,88.43
2023-01-27T09:50:08.698Z,88.53
2023-01-27T09:51:08.737Z,88.43
2023-01-27T09:52:08.776Z,88.43
2023-01-27T09:53:08.706Z,88.43
2023-01-27T09:54:08.658Z,88.32
2023-01-27T09:55:08.707Z,87.76
2023-01-27T09:56:12.033Z,87.55
2023-01-27T09:57:09.040Z,87.45
2023-01-27T09:58:08.647Z,87.30
2023-01-27T09:59:08.603Z,86.89
2023-01-27T10:00:08.624Z,86.47
2023-01-27T10:01:08.640Z,86.22
2023-01-27T10:02:08.583Z,86.43
2023-01-27T10:03:08.633Z,86.22
2023-01-27T10:04:08.556Z,86.08
2023-01-27T10:05:08.530Z,85.35
2023-01-27T10:06:08.556Z,84.94
2023-01-27T10:07:08.544Z,84.31
2023-01-27T10:08:08.561Z,84.42
2023-01-27T10:09:08.780Z,84.00
2023-01-27T10:10:08.527Z,83.80
2023-01-27T10:11:08.478Z,83.90
2023-01-27T10:12:08.479Z,83.73
2023-01-27T10:13:08.445Z,84.45
2023-01-27T10:14:08.406Z,84.77
2023-01-27T10:15:08.399Z,84.77
2023-01-27T10:16:08.468Z,85.39
2023-01-27T10:17:08.420Z,84.77
2023-01-27T10:18:08.366Z,84.25
2023-01-27T10:19:08.610Z,84.45
2023-01-27T10:20:08.377Z,84.98
2023-01-27T10:21:08.484Z,85.29
2023-01-27T10:22:08.350Z,85.50
2023-01-27T10:23:08.322Z,84.98
2023-01-27T10:24:08.308Z,84.83
2023-01-27T10:25:08.307Z,84.73
2023-01-27T10:26:08.321Z,84.83
2023-01-27T10:27:08.890Z,84.11
2023-01-27T10:28:08.251Z,83.90
2023-01-27T10:29:08.252Z,83.96
2023-01-27T10:30:09.117Z,83.48
2023-01-27T10:31:08.886Z,83.06
2023-01-27T10:32:08.238Z,83.17
2023-01-27T10:33:08.260Z,83.48
2023-01-27T10:34:08.190Z,83.48
2023-01-27T10:35:08.193Z,83.69
2023-01-27T10:36:08.176Z,83.17
2023-01-27T10:37:08.180Z,83.03
2023-01-27T10:38:08.156Z,83.13
2023-01-27T10:39:08.339Z,82.61
2023-01-27T10:40:08.131Z,82.71
2023-01-27T10:41:08.290Z,82.61
2023-01-27T10:42:08.110Z,83.03
2023-01-27T10:43:08.072Z,83.23
2023-01-27T10:44:08.149Z,83.34
2023-01-27T10:45:08.096Z,82.71
2023-01-27T10:46:08.075Z,82.40
2023-01-27T10:47:08.043Z,82.82
2023-01-27T10:48:08.017Z,82.92
2023-01-27T10:49:08.062Z,82.61
2023-01-27T10:50:08.041Z,83.34
2023-01-27T10:51:08.003Z,83.13
2023-01-27T10:52:07.988Z,83.44
2023-01-27T10:53:07.982Z,83.75
2023-01-27T10:54:07.975Z,83.86
2023-01-27T10:55:07.965Z,84.06
2023-01-27T10:56:07.971Z,83.75
2023-01-27T10:57:07.903Z,84.06
2023-01-27T10:58:07.934Z,83.75
2023-01-27T10:59:07.913Z,83.96
2023-01-27T11:00:46.158Z,84.17
2023-01-27T11:01:25.047Z,84.27
2023-01-27T11:02:08.890Z,84.59
2023-01-27T11:03:07.861Z,84.27
2023-01-27T11:04:07.872Z,84.38
2023-01-27T11:05:07.817Z,84.69
2023-01-27T11:06:07.886Z,85.11
2023-01-27T11:07:07.826Z,85.25
2023-01-27T11:08:07.790Z,85.77
2023-01-27T11:09:07.909Z,85.88
2023-01-27T11:10:07.770Z,85.98
2023-01-27T11:11:07.885Z,86.29
2023-01-27T11:12:07.981Z,85.77
2023-01-27T11:13:08.175Z,85.77
2023-01-27T11:14:07.760Z,85.88
2023-01-27T11:15:07.876Z,85.98
2023-01-27T11:16:08.593Z,85.98
2023-01-27T11:17:08.744Z,86.08
2023-01-27T11:18:07.666Z,86.29
2023-01-27T11:19:07.688Z,86.60
2023-01-27T11:20:07.851Z,87.16
2023-01-27T11:21:07.641Z,87.27
2023-01-27T11:22:09.067Z,87.27
2023-01-27T11:23:07.663Z,87.58
2023-01-27T11:24:07.651Z,87.58
2023-01-27T11:25:07.588Z,87.48
2023-01-27T11:26:07.905Z,87.58
2023-01-27T11:27:07.679Z,87.73
2023-01-27T11:28:07.973Z,87.52
2023-01-27T11:29:09.281Z,87.52
2023-01-27T11:30:08.018Z,88.14
2023-01-27T11:31:08.207Z,88.66
2023-01-27T11:32:08.195Z,88.35
2023-01-27T11:33:08.164Z,88.45
2023-01-27T11:34:07.686Z,88.45
2023-01-27T11:35:07.613Z,88.14
2023-01-27T11:36:07.663Z,88.42
2023-01-27T11:37:07.464Z,88.42
2023-01-27T11:38:15.307Z,88.42
2023-01-27T11:39:08.487Z,88.10
2023-01-27T11:40:07.431Z,87.99
2023-01-27T11:41:08.376Z,88.10
2023-01-27T11:42:07.415Z,88.20
2023-01-27T11:43:07.372Z,88.42
2023-01-27T11:44:08.217Z,88.31
2023-01-27T11:45:07.785Z,88.20
2023-01-27T11:46:08.010Z,88.31
2023-01-27T11:47:07.345Z,88.10
2023-01-27T11:48:07.323Z,87.89
2023-01-27T11:49:07.317Z,87.96
2023-01-27T11:50:07.583Z,87.85
2023-01-27T11:51:07.340Z,88.06
2023-01-27T11:52:07.287Z,87.54
2023-01-27T11:53:07.309Z,87.43
2023-01-27T11:54:07.328Z,87.54
2023-01-27T11:55:07.823Z,87.65
2023-01-27T11:56:07.468Z,87.85
2023-01-27T11:57:07.447Z,87.54
2023-01-27T11:58:07.207Z,87.81
2023-01-27T11:59:07.587Z,87.81
2023-01-27T12:00:07.221Z,87.81
2023-01-27T12:01:07.228Z,87.60
2023-01-27T12:02:07.214Z,87.60
2023-01-27T12:03:07.905Z,87.50
2023-01-27T12:04:07.213Z,87.40
2023-01-27T12:05:07.479Z,87.50
2023-01-27T12:06:07.129Z,87.71
2023-01-27T12:07:07.978Z,87.75
2023-01-27T12:08:07.664Z,87.65
2023-01-27T12:09:07.691Z,87.75
2023-01-27T12:10:07.074Z,87.75
2023-01-27T12:11:07.131Z,87.75
2023-01-27T12:12:07.109Z,87.75
2023-01-27T12:13:07.840Z,88.06
2023-01-27T12:14:07.237Z,88.17
2023-01-27T12:15:07.523Z,88.06
2023-01-27T12:16:07.097Z,87.85
2023-01-27T12:17:06.993Z,87.85
2023-01-27T12:18:07.121Z,88.10
2023-01-27T12:19:07.045Z,88.20
2023-01-27T12:20:06.963Z,88.10
2023-01-27T12:21:07.317Z,88.42
2023-01-27T12:22:06.943Z,88.83
2023-01-27T12:23:07.538Z,88.93
2023-01-27T12:24:07.705Z,88.83
2023-01-27T12:25:06.890Z,88.73
2023-01-27T12:26:06.880Z,88.93
2023-01-27T12:27:06.948Z,89.04
2023-01-27T12:28:06.883Z,89.14
2023-01-27T12:29:06.870Z,89.14
2023-01-27T12:30:06.834Z,89.04
2023-01-27T12:31:06.932Z,89.14
2023-01-27T12:32:06.847Z,88.93
2023-01-27T12:33:06.857Z,88.73
2023-01-27T12:34:06.833Z,88.93
2023-01-27T12:35:06.794Z,88.93
2023-01-27T12:36:06.807Z,89.25
2023-01-27T12:37:06.769Z,89.45
2023-01-27T12:38:07.173Z,89.45
2023-01-27T12:39:06.993Z,89.56
2023-01-27T12:40:06.727Z,89.50
2023-01-27T12:41:06.724Z,89.39
2023-01-27T12:42:06.691Z,89.60
2023-01-27T12:43:06.718Z,89.95
2023-01-27T12:44:06.663Z,90.26
2023-01-27T12:45:06.709Z,90.58
2023-01-27T12:46:06.667Z,90.68
2023-01-27T12:47:06.646Z,91.00
2023-01-27T12:48:06.657Z,91.10
2023-01-27T12:49:06.628Z,91.20
2023-01-27T12:50:06.627Z,91.52
2023-01-27T12:51:06.654Z,91.72
2023-01-27T12:52:06.607Z,91.83